createdAt,value
2018-10-06T00:14:04.182Z,90.30
2018-10-06T00:36:45.286Z,90.80
2018-10-06T00:39:20.729Z,90.90
2018-10-06T00:41:55.555Z,91.00
2018-10-06T00:44:31.405Z,91.10
2018-10-06T01:04:25.393Z,90.30
2018-10-06T01:07:02.473Z,90.50
2018-10-06T01:26:54.925Z,91.40
2018-10-06T01:29:28.010Z,91.60
2018-10-06T01:49:19.531Z,92.30
2018-10-06T01:51:56.412Z,92.20
2018-10-06T02:14:31.779Z,92.00
2018-10-06T02:17:07.425Z,91.80
2018-10-06T02:36:59.941Z,91.30
2018-10-06T02:39:36.455Z,91.10
2018-10-06T02:59:31.245Z,90.50
2018-10-06T03:02:05.254Z,90.80
2018-10-06T03:04:39.467Z,90.80
2018-10-06T03:07:13.275Z,90.70
2018-10-06T03:27:04.185Z,91.90
2018-10-06T03:29:40.241Z,92.10
2018-10-06T03:32:15.480Z,91.90
2018-10-06T03:34:51.540Z,92.00
2018-10-06T03:37:26.569Z,92.20
2018-10-06T03:57:19.736Z,93.40
2018-10-06T03:59:54.971Z,93.40
2018-10-06T04:19:48.139Z,93.30
2018-10-06T04:22:23.579Z,93.30
2018-10-06T04:24:58.408Z,93.30
2018-10-06T04:27:34.873Z,93.30
2018-10-06T04:47:27.423Z,91.90
2018-10-06T04:50:02.461Z,91.90
2018-10-06T04:52:36.465Z,91.80
2018-10-06T04:55:11.995Z,91.70
2018-10-06T04:57:45.719Z,91.80
2018-10-06T05:17:37.657Z,91.50
2018-10-06T05:20:14.324Z,91.40
2018-10-06T05:40:05.644Z,91.30
2018-10-06T05:42:42.070Z,91.40
2018-10-06T06:02:34.660Z,91.90
2018-10-06T06:05:17.690Z,92.00
2018-10-06T06:25:11.707Z,90.30
2018-10-06T06:27:47.088Z,90.40
2018-10-06T06:47:38.635Z,89.20
2018-10-06T07:07:30.118Z,87.60
2018-10-06T07:30:11.262Z,87.10
2018-10-06T07:32:46.497Z,87.10
2018-10-06T07:35:21.738Z,86.90
2018-10-06T07:37:58.817Z,86.70
2018-10-06T07:57:51.983Z,85.70
2018-10-06T08:00:29.680Z,85.70
2018-10-06T08:20:20.808Z,85.70
2018-10-06T08:23:03.001Z,86.10
2018-10-06T08:42:56.777Z,79.30
2018-10-06T08:45:35.089Z,78.90
2018-10-06T09:08:25.612Z,80.30
2018-10-06T09:11:04.809Z,80.00
2018-10-06T09:13:48.778Z,79.00
2018-10-06T09:16:26.066Z,78.40
2018-10-06T09:19:02.538Z,79.30
2018-10-06T09:21:39.205Z,79.30
2018-10-06T09:24:17.519Z,80.20
2018-10-06T09:26:52.754Z,79.50
2018-10-06T09:29:30.663Z,78.20
2018-10-06T09:32:07.179Z,76.70
2018-10-06T09:34:42.566Z,78.10
2018-10-06T09:37:19.438Z,77.60
2018-10-06T09:39:54.682Z,77.40
2018-10-06T09:42:31.851Z,76.70
2018-10-06T09:45:09.662Z,77.00
2018-10-06T09:47:44.495Z,77.10
2018-10-06T09:50:19.729Z,76.20
2018-10-06T09:53:00.701Z,77.40
2018-10-06T09:55:36.969Z,77.70
2018-10-06T09:58:16.300Z,78.00
2018-10-06T10:00:57.710Z,78.50
2018-10-06T10:03:39.680Z,78.70
2018-10-06T10:06:17.194Z,77.60
2018-10-06T10:08:52.610Z,77.90
2018-10-06T10:11:32.768Z,77.00
2018-10-06T10:14:08.008Z,77.20
2018-10-06T10:16:45.209Z,75.80
2018-10-06T10:19:19.304Z,76.40
2018-10-06T10:21:56.198Z,77.10
2018-10-06T10:24:31.824Z,78.50
2018-10-06T10:27:10.547Z,78.30
2018-10-06T10:29:45.784Z,78.10
2018-10-06T10:32:21.841Z,78.00
2018-10-06T10:35:00.258Z,78.00
2018-10-06T10:54:53.110Z,74.80
2018-10-06T10:57:30.828Z,75.70
2018-10-06T11:00:06.797Z,76.20
2018-10-06T11:02:42.925Z,76.00
2018-10-06T11:22:34.653Z,73.60
2018-10-06T11:42:26.797Z,74.50
2018-10-06T11:45:09.810Z,74.50
2018-10-06T12:05:08.099Z,74.40
2018-10-06T12:07:43.131Z,73.70
2018-10-06T12:18:56.925Z,75.90
2018-10-06T12:38:51.927Z,74.10
2018-10-06T12:41:31.886Z,73.50
2018-10-06T12:44:16.741Z,73.70
2018-10-06T12:46:54.645Z,73.50
2018-10-06T12:49:36.645Z,73.30
2018-10-06T12:52:10.855Z,73.30
2018-10-06T12:54:50.804Z,73.80
2018-10-06T13:14:48.065Z,73.40
2018-10-06T13:17:24.231Z,73.30
2018-10-06T13:37:15.650Z,73.80
2018-10-06T13:39:51.503Z,73.90
2018-10-06T13:59:43.643Z,72.90
2018-10-06T14:02:19.899Z,72.90
2018-10-06T14:04:53.911Z,73.30
2018-10-06T14:07:31.811Z,72.70
2018-10-06T14:10:07.874Z,73.00
2018-10-06T14:30:02.880Z,71.60
2018-10-06T14:32:37.961Z,71.80
2018-10-06T14:52:30.873Z,72.80
2018-10-06T14:55:07.955Z,73.10
2018-10-06T15:15:04.599Z,74.80
2018-10-06T15:17:40.407Z,75.10
2018-10-06T15:20:12.821Z,75.70
2018-10-06T15:22:46.828Z,75.60
2018-10-06T15:25:22.887Z,76.10
2018-10-06T15:45:19.432Z,78.30
2018-10-06T15:47:57.233Z,78.30
2018-10-06T16:07:51.011Z,75.90
2018-10-06T16:10:25.017Z,76.90
2018-10-06T16:30:16.131Z,80.40
2018-10-06T16:32:52.398Z,80.50
2018-10-06T16:35:30.096Z,80.30
2018-10-06T16:55:27.149Z,82.20
2018-10-06T16:58:05.255Z,82.40
2018-10-06T17:17:57.189Z,82.80
2018-10-06T17:20:32.237Z,82.70
2018-10-06T17:40:25.386Z,83.00
2018-10-06T17:43:00.421Z,83.10
2018-10-06T18:02:53.179Z,83.90
2018-10-06T18:05:28.211Z,83.60
2018-10-06T18:08:02.423Z,83.70
2018-10-06T18:27:53.334Z,83.80
2018-10-06T18:30:29.191Z,83.90
2018-10-06T18:50:21.127Z,86.00
2018-10-06T18:52:58.413Z,86.00
2018-10-06T19:13:01.197Z,86.50
2018-10-06T19:15:37.277Z,86.60
2018-10-06T19:38:18.354Z,87.10
2018-10-06T19:40:53.189Z,87.10
2018-10-06T19:43:34.502Z,87.10
2018-10-06T19:46:10.213Z,87.20
2018-10-06T19:48:44.226Z,87.40
2018-10-06T19:51:18.236Z,87.50
2018-10-06T19:53:53.268Z,87.40
2018-10-06T19:56:28.304Z,87.30
2018-10-06T19:59:04.157Z,86.90
2018-10-06T20:01:39.189Z,86.90
2018-10-06T20:04:20.403Z,87.00
2018-10-06T20:06:56.217Z,87.00
2018-10-06T20:09:31.256Z,87.10
2018-10-06T20:12:07.696Z,87.10
2018-10-06T20:14:45.792Z,86.90
2018-10-06T20:17:21.268Z,86.60
2018-10-06T20:19:56.504Z,86.60
2018-10-06T20:22:31.130Z,86.60
2018-10-06T20:25:06.368Z,86.90
2018-10-06T20:27:41.197Z,86.70
2018-10-06T20:30:16.230Z,86.80
2018-10-06T20:32:51.480Z,87.20
2018-10-06T20:35:26.912Z,87.20
2018-10-06T20:38:01.731Z,87.00
2018-10-06T20:40:36.722Z,87.20
2018-10-06T20:43:14.265Z,87.30
2018-10-06T20:45:49.503Z,87.50
2018-10-06T20:48:25.716Z,87.60
2018-10-06T20:51:00.187Z,87.60
2018-10-06T20:53:34.811Z,87.40
2018-10-06T20:56:09.641Z,87.50
2018-10-06T20:58:43.855Z,87.80
2018-10-06T21:01:20.320Z,87.90
2018-10-06T21:03:58.218Z,88.00
2018-10-06T21:06:34.278Z,87.90
2018-10-06T21:09:12.175Z,88.00
2018-10-06T21:11:48.447Z,88.10
2018-10-06T21:14:24.297Z,88.20
2018-10-06T21:16:59.327Z,88.20
2018-10-06T21:19:34.156Z,88.10
2018-10-06T21:22:10.212Z,88.00
2018-10-06T21:24:47.301Z,88.20
2018-10-06T21:27:24.171Z,88.20
2018-10-06T21:30:00.227Z,88.20
2018-10-06T21:32:35.262Z,87.90
2018-10-06T21:35:10.913Z,87.80
2018-10-06T21:37:49.224Z,87.90
2018-10-06T21:40:24.253Z,87.70
2018-10-06T21:42:59.289Z,87.80
2018-10-06T21:45:34.320Z,87.60
2018-10-06T21:48:10.175Z,87.60
2018-10-06T21:50:45.785Z,87.60
2018-10-06T21:53:20.240Z,87.70
2018-10-06T21:55:55.476Z,87.70
2018-10-06T21:58:30.308Z,87.60
2018-10-06T22:01:13.332Z,87.70
2018-10-06T22:03:48.159Z,87.70
2018-10-06T22:06:22.374Z,87.70
2018-10-06T22:08:59.268Z,87.70
2018-10-06T22:11:33.261Z,87.40
2018-10-06T22:14:07.679Z,87.40
2018-10-06T22:16:42.508Z,87.50
2018-10-06T22:19:18.562Z,87.70
2018-10-06T22:21:54.006Z,87.70
2018-10-06T22:24:29.241Z,87.50
2018-10-06T22:27:04.350Z,87.50
2018-10-06T22:29:39.312Z,87.50
2018-10-06T22:32:15.741Z,87.70
2018-10-06T22:34:49.171Z,87.70
2018-10-06T22:37:29.326Z,87.90
2018-10-06T22:40:04.744Z,87.60
2018-10-06T22:42:41.235Z,87.40
2018-10-06T22:45:17.298Z,87.20
2018-10-06T22:47:52.329Z,87.30
2018-10-06T22:50:29.207Z,87.30
2018-10-06T22:53:04.241Z,87.30
2018-10-06T22:55:40.292Z,87.20
2018-10-06T22:58:15.125Z,87.30
2018-10-06T23:00:50.571Z,87.40
2018-10-06T23:03:26.215Z,87.60
2018-10-06T23:06:01.254Z,87.80
2018-10-06T23:08:36.281Z,87.90
2018-10-06T23:11:10.291Z,87.80
2018-10-06T23:13:45.325Z,87.70
2018-10-06T23:16:20.563Z,87.60
2018-10-06T23:19:00.308Z,87.70
2018-10-06T23:21:36.570Z,87.80
2018-10-06T23:24:12.216Z,88.10
2018-10-06T23:26:47.254Z,88.20
2018-10-06T23:29:23.512Z,88.40
2018-10-06T23:31:59.365Z,88.40
2018-10-06T23:34:36.446Z,88.20
2018-10-06T23:37:11.276Z,88.40
2018-10-06T23:39:46.925Z,88.10
2018-10-06T23:42:21.343Z,88.10
2018-10-06T23:44:55.558Z,88.10
2018-10-06T23:47:32.227Z,88.20
2018-10-06T23:50:09.315Z,88.50
2018-10-06T23:52:44.345Z,88.00
2018-10-06T23:55:19.378Z,88.10
2018-10-06T23:57:56.255Z,88.20
